Terminal Aerodrome Forecast
Issued by NWS Binghamton, NY

Home | Current Version | Previous Version | Text Only | Print | Product List | Glossary On
Versions: 1 2 3 4 5 6 7 8 9 10 11 12 13 14 15 16 17 18
000
FTUS41 KBGM 300800 AAA
TAFAVP
TAF AMD
KAVP 300839Z 3009/3106 18004KT P6SM BKN020
     FM301300 20009KT P6SM SCT025 SCT100
     FM302300 20004KT P6SM SCT040 BKN150=

USA.gov is the U.S. government's official web portal to all federal, state and local government web resources and services.